Time;durP1;ratioP1;P1;durP2;ratioP2;P2;SDS_P1;SDS_P2;PMS_P1;PMS_P2;Temp;Humidity;BMP_temperature;BMP_pressure;BME280_temperature;BME280_humidity;BME280_pressure;Samples;Min_cycle;Max_cycle;Signal;HPM_P1;HPM_P2
2022/10/10 00:01:17;;;;;;;25.43;14.80;;;;;;;-141.97;69.74;47563.28;4973271;28;20171;-82
2022/10/10 00:03:43;;;;;;;26.27;15.23;;;;;;;-141.97;69.96;47490.25;4972847;28;20596;-82
2022/10/10 00:06:09;;;;;;;25.80;15.10;;;;;;;-141.97;71.38;47559.44;4972870;28;20220;-82
2022/10/10 00:08:35;;;;;;;26.33;15.63;;;;;;;-141.97;73.36;47497.94;4972949;28;20168;-82
2022/10/10 00:11:01;;;;;;;27.50;16.33;;;;;;;-141.97;74.80;47517.16;4972900;28;20200;-82
2022/10/10 00:13:27;;;;;;;27.70;16.40;;;;;;;-141.97;75.84;47561.38;4973042;28;20180;-82
2022/10/10 00:15:52;;;;;;;32.03;17.30;;;;;;;-141.97;75.58;47530.59;4973052;28;20258;-83
2022/10/10 00:18:18;;;;;;;28.33;16.87;;;;;;;-141.97;74.81;47496.00;4973223;28;20167;-82
2022/10/10 00:20:43;;;;;;;30.50;18.03;;;;;;;-141.97;73.71;47553.69;4972768;28;20160;-82
2022/10/10 00:23:08;;;;;;;30.87;17.80;;;;;;;-141.97;73.93;47653.63;4972690;28;20263;-82
2022/10/10 00:25:35;;;;;;;32.20;17.57;;;;;;;-141.97;75.32;47565.22;4973011;28;20176;-83
2022/10/10 00:28:02;;;;;;;34.13;16.77;;;;;;;-141.97;74.77;47513.31;4972537;28;20652;-82
2022/10/10 00:30:28;;;;;;;28.93;16.37;;;;;;;-141.97;74.91;47461.41;4972592;28;20649;-82
2022/10/10 00:32:53;;;;;;;28.83;17.50;;;;;;;-141.97;75.57;47538.28;4972668;28;20215;-82
2022/10/10 00:35:19;;;;;;;29.57;16.77;;;;;;;-141.97;75.36;47569.06;4972689;28;20168;-82
2022/10/10 00:37:44;;;;;;;28.20;17.40;;;;;;;-141.97;74.88;47578.66;4972463;28;20175;-82
2022/10/10 00:40:10;;;;;;;27.63;16.30;;;;;;;-141.97;74.43;47565.22;4972540;28;20588;-82
2022/10/10 00:42:35;;;;;;;32.63;18.03;;;;;;;-141.97;73.71;47546.00;4972438;28;20175;-83
2022/10/10 00:45:19;;;;;;;30.70;18.00;;;;;;;-141.97;72.69;47570.97;4972518;28;20182;-83
2022/10/10 00:47:46;;;;;;;28.53;17.33;;;;;;;-141.97;72.45;47546.00;4972987;28;20176;-82
2022/10/10 00:50:11;;;;;;;31.10;17.60;;;;;;;-141.97;72.41;47549.84;4972872;28;20164;-82
2022/10/10 00:52:38;;;;;;;29.13;16.17;;;;;;;-141.97;71.75;47580.59;4972640;28;20540;-82
2022/10/10 00:55:04;;;;;;;28.83;16.60;;;;;;;-141.97;71.61;47511.38;4972318;28;20223;-82
2022/10/10 00:57:29;;;;;;;27.73;16.20;;;;;;;-141.97;71.53;47553.69;4972494;28;20164;-82
2022/10/10 00:59:55;;;;;;;27.80;15.83;;;;;;;-141.97;71.41;47505.63;4972572;28;20608;-82
2022/10/10 01:02:21;;;;;;;28.53;16.80;;;;;;;-141.97;71.17;47547.91;4972886;28;20252;-82
2022/10/10 01:04:46;;;;;;;28.77;16.87;;;;;;;-141.97;71.68;47524.84;4971625;28;20215;-82
2022/10/10 01:07:18;;;;;;;33.63;18.30;;;;;;;-141.97;71.46;47519.06;4972422;28;20235;-82
2022/10/10 01:09:46;;;;;;;32.20;19.50;;;;;;;-141.97;71.17;47488.31;4972252;28;20168;-82
2022/10/10 01:12:24;;;;;;;32.80;19.13;;;;;;;-141.97;71.40;47532.53;4972219;28;20262;-82
2022/10/10 01:15:21;;;;;;;35.57;19.30;;;;;;;-141.97;71.47;47544.06;4972456;28;20176;-83
2022/10/10 01:17:56;;;;;;;42.17;23.33;;;;;;;-141.97;71.20;47511.38;4972291;28;20186;-82
2022/10/10 01:20:36;;;;;;;40.43;22.43;;;;;;;-141.97;71.60;47592.13;4972313;28;20175;-82
2022/10/10 01:23:07;;;;;;;48.27;24.53;;;;;;;-141.97;71.35;47555.59;4972174;28;20168;-82
2022/10/10 01:25:44;;;;;;;44.13;22.53;;;;;;;-141.97;71.47;47499.84;4972164;28;20566;-82
2022/10/10 01:28:28;;;;;;;33.90;19.97;;;;;;;-141.97;72.05;47538.28;4972190;28;20168;-82
2022/10/10 01:30:56;;;;;;;38.53;19.53;;;;;;;-141.97;71.71;47544.06;4972428;28;20171;-82
2022/10/10 01:33:37;;;;;;;35.20;20.30;;;;;;;-141.97;71.93;47526.75;4972231;28;20232;-82
2022/10/10 01:36:15;;;;;;;32.80;19.77;;;;;;;-141.97;71.87;47557.53;4972012;28;20259;-82
2022/10/10 01:39:06;;;;;;;35.03;19.33;;;;;;;-141.97;71.91;47557.53;4972198;28;20198;-82
2022/10/10 01:41:41;;;;;;;34.73;19.20;;;;;;;-141.97;72.57;47551.75;4973989;28;20251;-82
2022/10/10 01:44:07;;;;;;;32.97;19.13;;;;;;;-141.97;72.44;47561.38;4975227;28;20164;-82
2022/10/10 01:46:32;;;;;;;33.83;18.93;;;;;;;-141.97;72.31;47536.38;4975697;28;20219;-83
2022/10/10 01:48:59;;;;;;;32.97;19.50;;;;;;;-141.97;72.12;47624.78;4975958;28;20176;-83
2022/10/10 01:51:53;;;;;;;37.37;20.43;;;;;;;-141.97;71.92;47546.00;4975899;28;20191;-83
2022/10/10 01:54:49;;;;;;;36.63;20.80;;;;;;;-141.97;72.47;47530.59;4975243;28;20235;-82
2022/10/10 01:57:45;;;;;;;38.83;21.37;;;;;;;-141.97;73.01;47532.53;4975099;28;20244;-82
2022/10/10 02:00:13;;;;;;;37.17;20.50;;;;;;;-141.97;73.10;47546.00;4975186;28;20182;-82
2022/10/10 02:02:53;;;;;;;34.47;20.50;;;;;;;-141.97;73.30;47534.44;4975245;28;20625;-82
2022/10/10 02:05:43;;;;;;;35.50;21.07;;;;;;;-141.97;74.32;47595.97;4975102;28;20177;-82
2022/10/10 02:08:14;;;;;;;37.80;22.17;;;;;;;-141.97;74.63;47540.22;4959757;28;20616;-82
2022/10/10 02:10:45;;;;;;;40.27;22.87;;;;;;;-141.97;75.04;47511.38;4955700;28;20165;-82
2022/10/10 02:13:12;;;;;;;40.10;22.70;;;;;;;-141.97;74.81;47557.53;4954457;29;20660;-82
2022/10/10 02:15:44;;;;;;;40.73;22.80;;;;;;;-141.97;74.82;47574.81;4955676;28;20173;-82
2022/10/10 02:18:13;;;;;;;38.63;22.33;;;;;;;-141.97;74.89;47530.59;4955537;28;20243;-82
2022/10/10 02:20:41;;;;;;;40.60;22.93;;;;;;;-141.97;75.50;47519.06;4955462;28;20176;-82
2022/10/10 02:23:08;;;;;;;38.70;23.23;;;;;;;-141.97;76.09;47557.53;4955625;28;20172;-82
2022/10/10 02:25:38;;;;;;;39.03;22.40;;;;;;;-141.97;75.66;47538.28;4955535;28;20172;-83
2022/10/10 02:28:09;;;;;;;42.00;22.40;;;;;;;-141.97;76.47;47597.88;4955436;28;20597;-82
2022/10/10 02:30:38;;;;;;;37.00;22.27;;;;;;;-141.97;76.31;47538.28;4955129;28;20179;-82
2022/10/10 02:33:07;;;;;;;39.23;23.07;;;;;;;-141.97;77.24;47576.75;4955338;28;20201;-82
2022/10/10 02:35:41;;;;;;;37.07;22.53;;;;;;;-141.97;77.81;47546.00;4955336;28;20204;-82
2022/10/10 02:38:10;;;;;;;38.03;22.17;;;;;;;-141.97;77.91;47542.16;4955362;28;20235;-83
2022/10/10 02:40:37;;;;;;;40.67;22.80;;;;;;;-141.97;78.23;47522.91;4955314;28;20169;-85
2022/10/10 02:43:06;;;;;;;40.07;23.10;;;;;;;-141.97;78.23;47626.72;4955402;28;20252;-82
2022/10/10 02:45:32;;;;;;;35.70;22.37;;;;;;;-141.97;77.73;47503.69;4955377;29;20627;-83
2022/10/10 02:47:59;;;;;;;35.90;22.40;;;;;;;-141.97;78.16;47561.38;4955119;28;20550;-82
2022/10/10 02:50:26;;;;;;;36.30;21.77;;;;;;;-141.97;77.47;47565.22;4954974;28;20164;-82
2022/10/10 02:52:51;;;;;;;34.73;21.37;;;;;;;-141.97;77.47;47532.53;4954659;28;20212;-82
2022/10/10 02:55:17;;;;;;;42.03;22.67;;;;;;;-141.97;77.78;47655.53;4954755;28;20316;-81
2022/10/10 02:57:42;;;;;;;38.30;21.10;;;;;;;-141.97;77.66;47542.16;4955008;28;20176;-83
2022/10/10 03:00:09;;;;;;;34.70;21.97;;;;;;;-141.97;77.74;47551.75;4955530;28;20172;-82
2022/10/10 03:02:34;;;;;;;38.93;21.67;;;;;;;-141.97;77.53;47553.69;4955067;28;20231;-83
2022/10/10 03:04:59;;;;;;;36.60;21.03;;;;;;;-141.97;77.73;47486.41;4954941;28;20168;-83
2022/10/10 03:07:25;;;;;;;39.33;22.00;;;;;;;-141.97;77.89;47422.97;4954430;28;20216;-82
2022/10/10 03:09:51;;;;;;;37.00;21.33;;;;;;;-141.97;77.90;47561.38;4954882;28;20209;-82
2022/10/10 03:12:16;;;;;;;35.23;20.97;;;;;;;-141.97;77.95;47492.16;4970071;28;20220;-82
2022/10/10 03:14:42;;;;;;;37.77;21.13;;;;;;;-141.97;77.90;47580.59;4956593;28;20173;-83
2022/10/10 03:17:07;;;;;;;35.13;20.97;;;;;;;-141.97;78.41;47432.59;4957593;28;20613;-79
2022/10/10 03:19:33;;;;;;;34.37;21.40;;;;;;;-141.97;78.74;47695.91;4956597;28;20697;-80
2022/10/10 03:21:59;;;;;;;36.97;21.97;;;;;;;-141.97;78.33;47645.94;4955313;28;20185;-81
2022/10/10 03:24:25;;;;;;;38.13;22.80;;;;;;;-141.97;77.98;47588.28;4956606;28;20169;-82
2022/10/10 03:26:50;;;;;;;51.27;27.57;;;;;;;-141.97;78.11;47511.38;4954654;28;20173;-81
2022/10/10 03:29:16;;;;;;;52.73;29.97;;;;;;;-141.97;77.96;47586.34;4954340;28;20255;-81
2022/10/10 03:31:41;;;;;;;50.57;28.60;;;;;;;-141.97;77.62;47580.59;4954240;28;20192;-82
2022/10/10 03:34:06;;;;;;;44.03;25.30;;;;;;;-141.97;76.78;47590.19;4954471;28;20264;-82
2022/10/10 03:36:32;;;;;;;48.47;24.17;;;;;;;-141.97;75.93;47536.38;4954332;28;20169;-82
2022/10/10 03:38:57;;;;;;;47.23;25.97;;;;;;;-141.97;75.25;47530.59;4954016;28;20165;-82
2022/10/10 03:41:22;;;;;;;45.83;24.83;;;;;;;-141.97;74.98;47572.91;4954199;28;20549;-82
2022/10/10 03:43:48;;;;;;;58.77;30.50;;;;;;;-141.97;74.22;47546.00;4954127;28;20707;-82
2022/10/10 03:46:13;;;;;;;53.47;26.83;;;;;;;-141.97;74.44;47657.47;4954384;28;20165;-82
2022/10/10 03:48:39;;;;;;;46.67;24.97;;;;;;;-141.97;74.86;47542.16;4954717;28;20184;-81
2022/10/10 03:51:05;;;;;;;47.90;24.67;;;;;;;-141.97;76.16;47584.44;4954074;28;20207;-81
2022/10/10 03:53:30;;;;;;;43.97;24.03;;;;;;;-141.97;77.73;47532.53;4953941;28;20649;-82
2022/10/10 03:55:56;;;;;;;47.87;26.10;;;;;;;-141.97;78.00;47501.78;4953460;28;20220;-82
2022/10/10 03:58:21;;;;;;;52.27;27.70;;;;;;;-141.97;77.75;47546.00;4953712;28;20169;-83
2022/10/10 04:00:58;;;;;;;42.47;23.43;;;;;;;-141.97;78.15;47563.28;4953808;28;20173;-82
2022/10/10 04:03:24;;;;;;;43.13;23.27;;;;;;;-141.97;78.02;47567.13;4953112;28;20196;-82
2022/10/10 04:05:51;;;;;;;48.37;26.80;;;;;;;-141.97;78.10;47557.53;4953531;28;20252;-82
2022/10/10 04:08:16;;;;;;;40.27;25.17;;;;;;;-141.97;77.62;47595.97;4953474;28;20179;-82
2022/10/10 04:10:42;;;;;;;40.20;24.67;;;;;;;-141.97;77.47;47605.56;4953828;28;20273;-82
2022/10/10 04:13:07;;;;;;;45.03;26.53;;;;;;;-141.97;76.73;47549.84;4953515;28;20232;-82
2022/10/10 04:15:33;;;;;;;45.17;24.87;;;;;;;-141.97;77.26;47565.22;4938949;28;21475;-82
2022/10/10 04:17:59;;;;;;;48.93;27.00;;;;;;;-141.97;77.06;47557.53;4946044;28;20688;-82
2022/10/10 04:20:25;;;;;;;49.67;27.77;;;;;;;-141.97;77.28;47584.44;4950847;28;20873;-82
2022/10/10 04:22:50;;;;;;;46.23;26.73;;;;;;;-141.97;77.85;47546.00;4963033;28;20218;-82
2022/10/10 04:25:16;;;;;;;40.07;23.50;;;;;;;-141.97;77.90;47559.44;4969270;28;20212;-82
2022/10/10 04:27:44;;;;;;;40.07;25.43;;;;;;;-141.97;77.87;47553.69;4961112;28;20180;-82
2022/10/10 04:30:10;;;;;;;44.33;26.63;;;;;;;-141.97;77.48;47536.38;4950342;28;20180;-82
2022/10/10 04:32:36;;;;;;;53.13;28.07;;;;;;;-141.97;77.65;47532.53;4949836;28;20215;-82
2022/10/10 04:35:02;;;;;;;74.83;36.77;;;;;;;-141.97;77.30;47563.28;4950131;28;20176;-82
2022/10/10 04:37:28;;;;;;;71.53;37.53;;;;;;;-141.97;77.49;47572.91;4948532;28;20186;-81
2022/10/10 04:39:53;;;;;;;69.47;37.30;;;;;;;-141.97;77.26;47644.00;4949681;28;20243;-81
2022/10/10 04:42:19;;;;;;;121.90;63.77;;;;;;;-141.97;76.74;47561.38;4949969;28;20271;-81
2022/10/10 04:44:44;;;;;;;131.03;67.07;;;;;;;-141.97;76.63;47594.03;4949505;28;20243;-81
2022/10/10 04:47:10;;;;;;;127.03;64.37;;;;;;;-141.97;76.68;47636.31;4948872;28;20207;-81
2022/10/10 04:49:35;;;;;;;129.07;63.53;;;;;;;-141.97;76.57;47576.75;4950233;28;20228;-81
2022/10/10 04:52:00;;;;;;;83.13;44.07;;;;;;;-141.97;77.00;47515.22;4948791;28;20210;-81
2022/10/10 04:54:26;;;;;;;84.97;43.17;;;;;;;-141.97;76.89;47557.53;4949465;28;20220;-84
2022/10/10 04:56:51;;;;;;;72.73;39.67;;;;;;;-141.97;77.06;47519.06;4949321;28;20200;-82
2022/10/10 04:59:17;;;;;;;59.07;30.53;;;;;;;-141.97;77.63;47570.97;4949289;29;20271;-82
2022/10/10 05:01:42;;;;;;;57.10;31.47;;;;;;;-141.97;78.76;47526.75;4949700;28;20184;-84
2022/10/10 05:04:07;;;;;;;52.27;26.50;;;;;;;-141.97;78.78;47544.06;4949371;28;20239;-82
2022/10/10 05:06:33;;;;;;;53.50;29.73;;;;;;;-141.97;78.44;47540.22;4949765;28;20185;-82
2022/10/10 05:08:58;;;;;;;52.03;25.77;;;;;;;-141.97;77.92;47569.06;4949297;28;20188;-82
2022/10/10 05:11:24;;;;;;;43.70;23.80;;;;;;;-141.97;77.35;47578.66;4960845;28;20207;-81
2022/10/10 05:13:49;;;;;;;57.50;30.07;;;;;;;-141.97;77.11;47572.91;4968364;28;20180;-81
2022/10/10 05:16:15;;;;;;;41.10;22.60;;;;;;;-141.97;77.67;47538.28;4951071;28;20319;-81
2022/10/10 05:18:41;;;;;;;45.33;22.33;;;;;;;-141.97;77.22;47603.66;4954927;28;20188;-81
2022/10/10 05:21:06;;;;;;;45.90;22.60;;;;;;;-141.97;76.80;47570.97;4953274;28;20203;-80
2022/10/10 05:23:33;;;;;;;118.03;51.97;;;;;;;-141.97;76.51;47513.31;4952521;28;20223;-82
2022/10/10 05:25:58;;;;;;;59.50;27.87;;;;;;;-141.97;76.31;47559.44;4952511;28;20188;-81
2022/10/10 05:28:24;;;;;;;75.23;34.80;;;;;;;-141.97;76.97;47557.53;4952770;28;20184;-81
2022/10/10 05:30:51;;;;;;;37.03;19.07;;;;;;;-141.97;78.38;47553.69;4952724;28;20240;-81
2022/10/10 05:33:16;;;;;;;35.73;20.10;;;;;;;-141.97;79.47;47546.00;4953350;28;20259;-82
2022/10/10 05:35:42;;;;;;;39.47;21.90;;;;;;;-141.97;78.82;47547.91;4953105;28;20908;-82
2022/10/10 05:38:07;;;;;;;35.47;20.57;;;;;;;-141.97;78.09;47569.06;4953799;28;20189;-81
2022/10/10 05:40:32;;;;;;;33.77;20.17;;;;;;;-141.97;77.25;47580.59;4952938;28;20188;-81
2022/10/10 05:42:58;;;;;;;32.13;19.03;;;;;;;-141.97;76.32;47565.22;4953097;28;20181;-80
2022/10/10 05:45:23;;;;;;;58.83;31.73;;;;;;;-141.97;75.44;47534.44;4952569;28;20188;-82
2022/10/10 05:47:49;;;;;;;41.40;24.47;;;;;;;-141.97;74.49;47576.75;4952108;28;20195;-80
2022/10/10 05:50:27;;;;;;;36.93;22.30;;;;;;;-141.97;74.48;47563.28;4951887;28;20323;-82
2022/10/10 05:52:53;;;;;;;45.57;25.23;;;;;;;-141.97;73.85;47603.66;4952114;28;20204;-83
2022/10/10 05:55:18;;;;;;;41.27;22.00;;;;;;;-141.97;72.69;47513.31;4952158;28;20236;-81
2022/10/10 05:57:43;;;;;;;50.10;27.17;;;;;;;-141.97;72.76;47534.44;4951869;28;20220;-80
2022/10/10 06:00:09;;;;;;;52.80;31.63;;;;;;;-141.97;71.86;47563.28;4952569;28;20188;-82
2022/10/10 06:02:35;;;;;;;46.70;26.83;;;;;;;-141.97;71.63;47565.22;4952074;28;20665;-82
2022/10/10 06:05:00;;;;;;;34.43;21.40;;;;;;;-141.97;70.81;47557.53;4952171;28;20189;-81
2022/10/10 06:07:25;;;;;;;35.13;18.93;;;;;;;-141.97;70.67;47592.13;4951588;29;20728;-82
2022/10/10 06:09:51;;;;;;;31.10;19.27;;;;;;;-141.97;70.00;47570.97;4951633;28;20185;-81
2022/10/10 06:12:16;;;;;;;47.20;30.13;;;;;;;-141.97;69.98;47542.16;4951186;28;20282;-82
2022/10/10 06:14:41;;;;;;;31.37;19.37;;;;;;;-141.97;69.40;47553.69;4951276;28;20189;-82
2022/10/10 06:17:07;;;;;;;25.67;16.70;;;;;;;-141.97;68.82;47576.75;4942573;28;20303;-81
2022/10/10 06:19:33;;;;;;;33.07;18.37;;;;;;;-141.97;68.25;47569.06;4965880;28;20188;-80
2022/10/10 06:21:58;;;;;;;31.73;19.73;;;;;;;-141.97;67.58;47561.38;4951425;28;20587;-81
2022/10/10 06:24:23;;;;;;;35.90;19.77;;;;;;;-141.97;66.68;47559.44;4951316;28;20338;-82
2022/10/10 06:26:49;;;;;;;30.27;17.97;;;;;;;-141.97;65.51;47530.59;4950288;28;20210;-81
2022/10/10 06:29:14;;;;;;;34.23;19.67;;;;;;;-141.97;64.99;47559.44;4949948;28;20185;-80
2022/10/10 06:31:40;;;;;;;33.60;18.90;;;;;;;-141.97;64.86;47561.38;4950885;28;20212;-81
2022/10/10 06:34:06;;;;;;;27.17;17.40;;;;;;;-141.97;64.63;47542.16;4962800;28;20192;-81
2022/10/10 06:36:31;;;;;;;32.90;17.77;;;;;;;-141.97;63.97;47561.38;4969943;28;20559;-81
2022/10/10 06:38:57;;;;;;;28.83;17.27;;;;;;;-141.97;62.78;47546.00;4954683;28;20215;-81
2022/10/10 06:41:22;;;;;;;30.77;18.23;;;;;;;-141.97;62.17;47561.38;4951122;28;20189;-80
2022/10/10 06:43:50;;;;;;;28.50;18.33;;;;;;;-141.97;60.91;47515.22;4950655;28;20731;-81
2022/10/10 06:46:16;;;;;;;32.77;17.27;;;;;;;-141.97;59.76;47534.44;4950414;28;20181;-81
2022/10/10 06:48:41;;;;;;;29.67;17.30;;;;;;;-141.97;59.22;47592.13;4950270;28;20206;-80
2022/10/10 06:51:12;;;;;;;31.80;19.37;;;;;;;-141.97;58.17;47576.75;4950232;28;20345;-82
2022/10/10 06:53:37;;;;;;;29.80;16.97;;;;;;;-141.97;57.44;47536.38;4950284;28;20196;-81
2022/10/10 06:56:03;;;;;;;28.77;16.60;;;;;;;-141.97;57.22;47574.81;4949882;28;20216;-81
2022/10/10 06:58:29;;;;;;;30.53;17.43;;;;;;;-141.97;55.77;47519.06;4949533;28;20176;-80
2022/10/10 07:00:58;;;;;;;31.87;17.47;;;;;;;-141.97;55.55;47497.94;4949945;28;20259;-81
2022/10/10 07:03:24;;;;;;;34.28;19.98;;;;;;;-141.97;54.78;47544.06;4949694;28;20907;-82
2022/10/10 07:05:55;;;;;;;32.63;18.77;;;;;;;-141.97;53.88;47522.91;4949704;28;20191;-80
2022/10/10 07:08:22;;;;;;;32.83;18.67;;;;;;;-141.97;53.35;47496.00;4949215;28;20586;-80
2022/10/10 07:10:47;;;;;;;30.30;19.37;;;;;;;-141.97;52.39;47524.84;4948942;28;20199;-79
2022/10/10 07:13:14;;;;;;;33.80;20.00;;;;;;;-141.97;52.52;47501.78;4949334;28;20208;-80
2022/10/10 07:15:39;;;;;;;37.60;20.23;;;;;;;-141.97;52.32;47499.84;4948970;28;20275;-79
2022/10/10 07:18:05;;;;;;;34.30;20.53;;;;;;;-141.97;52.22;47511.38;4937906;28;20889;-81
2022/10/10 07:20:31;;;;;;;38.83;19.80;;;;;;;-141.97;52.18;47503.69;4948887;28;20193;-80
2022/10/10 07:22:56;;;;;;;33.23;18.63;;;;;;;-141.97;51.42;47530.59;4948767;28;20916;-80
2022/10/10 07:25:23;;;;;;;31.83;18.60;;;;;;;-141.97;51.24;47563.28;4949242;28;20592;-80
2022/10/10 07:27:48;;;;;;;33.63;16.43;;;;;;;-141.97;50.33;47494.09;4950046;28;20235;-79
2022/10/10 07:30:14;;;;;;;30.30;16.57;;;;;;;-141.97;50.23;47503.69;4948886;28;20184;-80
2022/10/10 07:32:39;;;;;;;25.90;16.13;;;;;;;-141.97;49.37;47503.69;4949173;28;20220;-79
2022/10/10 07:35:06;;;;;;;26.60;15.97;;;;;;;-141.97;49.24;47499.84;4948977;28;20204;-80
2022/10/10 07:37:31;;;;;;;29.90;15.93;;;;;;;-141.97;48.83;47503.69;4948147;28;20251;-81
2022/10/10 07:39:57;;;;;;;25.17;15.30;;;;;;;-141.97;48.29;47501.78;4948461;28;20817;-80
2022/10/10 07:42:22;;;;;;;27.33;15.60;;;;;;;-141.97;48.41;47482.56;4948385;28;20180;-80
2022/10/10 07:44:47;;;;;;;29.47;16.37;;;;;;;-141.97;47.83;47513.31;4948699;28;20258;-80
2022/10/10 07:47:13;;;;;;;24.43;15.60;;;;;;;-141.97;47.62;47474.88;4948454;28;20285;-80
2022/10/10 07:49:38;;;;;;;21.43;14.40;;;;;;;-141.97;48.12;47488.31;4948433;28;20184;-80
2022/10/10 07:52:04;;;;;;;20.43;14.07;;;;;;;-141.97;48.98;47519.06;4948522;28;20294;-80
2022/10/10 07:54:29;;;;;;;20.83;14.47;;;;;;;-141.97;47.72;47457.56;4948595;28;20676;-80
2022/10/10 07:56:55;;;;;;;23.57;14.80;;;;;;;-141.97;46.65;47511.38;4948305;28;20189;-80
2022/10/10 07:59:21;;;;;;;22.60;14.40;;;;;;;-141.97;46.33;47488.31;4947542;28;20834;-80
2022/10/10 08:01:47;;;;;;;21.80;14.33;;;;;;;-141.97;47.19;47511.38;4948372;28;20199;-79
2022/10/10 08:04:12;;;;;;;22.90;13.13;;;;;;;-141.97;47.58;47496.00;4948248;28;20310;-79
2022/10/10 08:06:37;;;;;;;22.47;14.13;;;;;;;-141.97;48.39;47503.69;4948189;28;20194;-80
2022/10/10 08:09:03;;;;;;;19.37;13.70;;;;;;;-141.97;48.05;47492.16;4948044;28;20180;-80
2022/10/10 08:11:28;;;;;;;19.70;13.77;;;;;;;-141.97;47.92;47519.06;4960410;28;20774;-80
2022/10/10 08:13:54;;;;;;;20.63;14.37;;;;;;;-141.97;47.73;47524.84;4967785;28;21177;-80
2022/10/10 08:16:19;;;;;;;22.07;14.40;;;;;;;-141.97;47.83;47476.78;4956631;28;20203;-80
2022/10/10 08:18:45;;;;;;;21.70;14.13;;;;;;;-141.97;48.53;47476.78;4956785;28;20194;-80
2022/10/10 08:21:12;;;;;;;21.20;14.70;;;;;;;-141.97;48.45;47497.94;4947737;28;20699;-80
2022/10/10 08:23:38;;;;;;;22.03;14.40;;;;;;;-141.97;47.14;47471.03;4947658;28;20221;-80
2022/10/10 08:26:06;;;;;;;24.20;14.47;;;;;;;-141.97;45.83;47511.38;4948699;28;21158;-80
2022/10/10 08:28:32;;;;;;;20.80;14.93;;;;;;;-141.97;45.49;47505.63;4951217;28;20282;-80
2022/10/10 08:30:57;;;;;;;32.80;14.70;;;;;;;-141.97;45.55;47463.34;4949379;28;20856;-80
2022/10/10 08:33:27;;;;;;;20.70;14.30;;;;;;;-141.97;46.13;47536.38;4947909;28;20222;-80
2022/10/10 08:35:52;;;;;;;19.53;13.93;;;;;;;-141.97;45.55;47453.72;4946622;29;20208;-80
2022/10/10 08:38:17;;;;;;;21.90;14.80;;;;;;;-141.97;45.99;47494.09;4947400;29;20185;-81
2022/10/10 08:40:49;;;;;;;18.93;14.30;;;;;;;-141.97;45.85;47444.13;4947626;28;20649;-81
2022/10/10 08:43:31;;;;;;;24.13;14.90;;;;;;;-141.97;46.08;47494.09;4947302;28;20192;-81
2022/10/10 08:45:57;;;;;;;22.03;14.60;;;;;;;-141.97;44.60;47492.16;4947854;28;20653;-80
2022/10/10 08:48:27;;;;;;;21.03;15.30;;;;;;;-141.97;45.60;47471.03;4947193;28;20283;-80
2022/10/10 08:51:08;;;;;;;24.03;14.57;;;;;;;-141.97;45.14;47497.94;4950422;28;20176;-80
2022/10/10 08:53:50;;;;;;;24.43;14.03;;;;;;;-141.97;44.55;47490.25;4953727;28;20195;-79
2022/10/10 08:56:28;;;;;;;18.53;13.80;;;;;;;-141.97;44.02;47492.16;4952547;28;20220;-80
2022/10/10 08:59:02;;;;;;;20.90;13.27;;;;;;;-141.97;43.46;47478.72;4949617;28;20259;-79
2022/10/10 09:01:33;;;;;;;17.80;12.90;;;;;;;-141.97;42.92;47457.56;4951398;28;20192;-80
2022/10/10 09:04:02;;;;;;;19.70;12.93;;;;;;;-141.97;43.55;47467.19;4951629;28;20634;-80
2022/10/10 09:06:43;;;;;;;19.63;12.20;;;;;;;-141.97;43.72;47453.72;4966207;28;20199;-79
2022/10/10 09:09:27;;;;;;;18.50;11.27;;;;;;;-141.97;43.27;47469.09;4951442;29;20324;-81
2022/10/10 09:12:05;;;;;;;18.93;10.60;;;;;;;-141.97;44.16;47461.41;4951000;28;20204;-80
2022/10/10 09:14:50;;;;;;;15.10;10.60;;;;;;;-141.97;44.19;47444.13;4952268;28;20188;-80
2022/10/10 09:17:34;;;;;;;15.20;10.60;;;;;;;-141.97;43.18;47499.84;4943985;28;20275;-81
2022/10/10 09:20:28;;;;;;;16.90;9.97;;;;;;;-141.97;42.08;47492.16;4951761;29;21212;-80
2022/10/10 09:23:02;;;;;;;15.90;10.00;;;;;;;-141.97;41.06;47465.25;4951430;28;20192;-80
2022/10/10 09:25:44;;;;;;;13.87;9.37;;;;;;;-141.97;41.49;47467.19;4951241;28;20202;-79
2022/10/10 09:28:21;;;;;;;16.00;10.40;;;;;;;-141.97;40.77;47447.97;4951622;28;20187;-81
2022/10/10 09:30:53;;;;;;;16.13;9.80;;;;;;;-141.97;39.77;47459.50;4951027;28;20188;-79
2022/10/10 09:33:27;;;;;;;13.87;10.00;;;;;;;-141.97;39.74;47455.66;4949171;28;20212;-79
2022/10/10 09:35:56;;;;;;;15.40;9.87;;;;;;;-141.97;40.10;47488.31;4950087;28;20854;-79
2022/10/10 09:38:33;;;;;;;14.40;9.80;;;;;;;-141.97;40.05;47455.66;4950460;28;20657;-79
2022/10/10 09:41:04;;;;;;;14.03;8.97;;;;;;;-141.97;39.66;47467.19;4949919;28;20196;-79
2022/10/10 09:43:33;;;;;;;14.87;8.67;;;;;;;-141.97;39.89;47446.03;4951235;28;20748;-78
2022/10/10 09:45:58;;;;;;;14.17;8.50;;;;;;;-141.97;39.42;47474.88;4959878;28;20184;-80
2022/10/10 09:48:30;;;;;;;14.57;8.93;;;;;;;-141.97;39.91;47449.88;4970428;28;20664;-78
2022/10/10 09:50:55;;;;;;;12.13;9.00;;;;;;;-141.97;40.06;47453.72;4962020;28;20246;-79
2022/10/10 09:53:21;;;;;;;10.57;7.87;;;;;;;-141.97;40.22;47463.34;4950381;28;20759;-80
2022/10/10 09:55:49;;;;;;;13.20;8.63;;;;;;;-141.97;40.40;47465.25;4949774;28;20229;-80
2022/10/10 09:58:35;;;;;;;13.77;9.67;;;;;;;-141.97;40.43;47457.56;4950395;28;20192;-80
2022/10/10 10:01:19;;;;;;;11.70;8.93;;;;;;;-141.97;40.31;47447.97;4949365;28;20188;-80
2022/10/10 10:04:17;;;;;;;12.60;8.77;;;;;;;-141.97;39.01;47453.72;4950180;28;20188;-80
2022/10/10 10:06:49;;;;;;;12.87;8.97;;;;;;;-141.97;38.71;47619.03;4950025;28;20272;-80
2022/10/10 10:09:22;;;;;;;13.50;9.30;;;;;;;-141.97;39.04;47490.25;4949665;28;20192;-81
2022/10/10 10:11:54;;;;;;;12.53;9.03;;;;;;;-141.97;38.19;47490.25;4949809;28;20216;-78
2022/10/10 10:14:29;;;;;;;11.13;8.30;;;;;;;-141.97;38.22;47490.25;4949751;28;20173;-78
2022/10/10 10:17:05;;;;;;;12.10;8.43;;;;;;;-141.97;37.66;47438.34;4941156;28;20191;-79
2022/10/10 10:19:39;;;;;;;13.73;7.87;;;;;;;-141.97;37.94;47442.19;4948903;29;20199;-78
2022/10/10 10:22:32;;;;;;;14.17;8.20;;;;;;;-141.97;37.83;47461.41;4949273;28;20653;-78
2022/10/10 10:24:59;;;;;;;11.47;8.37;;;;;;;-141.97;38.88;47428.75;4949654;28;20712;-78
2022/10/10 10:27:27;;;;;;;16.37;9.77;;;;;;;-141.97;39.57;47442.19;4949960;28;20192;-80
2022/10/10 10:29:55;;;;;;;13.13;9.30;;;;;;;-141.97;39.55;47444.13;4949832;28;20263;-80
2022/10/10 10:32:36;;;;;;;13.60;8.73;;;;;;;-141.97;38.99;47461.41;4949867;28;20216;-80
2022/10/10 10:35:24;;;;;;;12.30;8.87;;;;;;;-141.97;38.82;47447.97;4949564;28;20204;-80
2022/10/10 10:38:06;;;;;;;14.07;9.10;;;;;;;-141.97;38.84;47476.78;4908942;29;20212;-79
2022/10/10 10:40:46;;;;;;;15.63;9.50;;;;;;;-141.97;38.20;47449.88;4908558;29;20197;-80
2022/10/10 10:43:33;;;;;;;12.10;9.07;;;;;;;-141.97;38.35;47419.13;4909052;29;20292;-80
2022/10/10 10:46:13;;;;;;;12.37;9.27;;;;;;;-141.97;37.88;47474.88;4908669;29;20205;-80
2022/10/10 10:48:43;;;;;;;14.90;8.63;;;;;;;-141.97;37.74;47457.56;4892807;29;20355;-80
2022/10/10 10:51:39;;;;;;;12.40;9.00;;;;;;;-141.97;37.13;47444.13;4908370;29;20977;-80
2022/10/10 10:54:16;;;;;;;10.80;8.10;;;;;;;-141.97;36.90;47442.19;4908525;29;20237;-80
2022/10/10 10:57:00;;;;;;;13.10;8.70;;;;;;;-141.97;38.09;47422.97;4892835;29;20233;-80
2022/10/10 10:59:48;;;;;;;12.03;9.07;;;;;;;-141.97;38.75;47434.50;4908458;29;20194;-79
2022/10/10 11:02:35;;;;;;;15.43;9.73;;;;;;;-141.97;39.33;47472.94;4908404;29;20297;-79
2022/10/10 11:05:24;;;;;;;14.53;9.40;;;;;;;-141.97;39.48;47476.78;4909576;29;21050;-79
2022/10/10 11:08:23;;;;;;;14.77;9.90;;;;;;;-141.97;39.10;47457.56;4908517;29;20864;-79
2022/10/10 11:11:03;;;;;;;13.93;10.10;;;;;;;-141.97;39.34;47457.56;4907812;29;20218;-78
2022/10/10 11:13:42;;;;;;;17.67;10.00;;;;;;;-141.97;39.10;47430.66;4908296;29;20197;-78